Terminal Aerodrome Forecast
Issued by NWS

Home | Current Version | Previous Version | Text Only | Print | Product List | Glossary On
Versions: 1 2 3 4 5 6 7 8 9 10 11 12 13 14 15 16 17 18 19 20 21 22
000
FTUS41 KGYX 211701 AAB
TAFHIE
TAF AMD
KHIE 211701Z 2117/2212 00000KT 2SM -SN OVC035
      TEMPO 2118/2122 P6SM NSW BKN045
     FM220000 00000KT P6SM OVC100
     FM220300 00000KT P6SM OVC050=

USA.gov is the U.S. government's official web portal to all federal, state and local government web resources and services.